createdAt,value
2022-12-01T00:01:40.982Z,2.57
2022-12-01T00:04:07.606Z,2.62
2022-12-01T00:06:34.217Z,2.47
2022-12-01T00:09:00.889Z,2.54
2022-12-01T00:11:27.488Z,2.33
2022-12-01T00:13:54.098Z,2.27
2022-12-01T00:16:20.765Z,2.44
2022-12-01T00:18:50.448Z,2.34
2022-12-01T00:21:18.982Z,2.33
2022-12-01T00:23:46.623Z,2.30
2022-12-01T00:26:13.746Z,2.31
2022-12-01T00:28:40.359Z,2.14
2022-12-01T00:31:11.361Z,2.27
2022-12-01T00:33:39.044Z,2.09
2022-12-01T00:36:06.569Z,1.92
2022-12-01T00:38:33.759Z,1.87
2022-12-01T00:41:00.479Z,1.84
2022-12-01T00:43:27.117Z,1.89
2022-12-01T00:45:53.865Z,1.86
2022-12-01T00:48:20.465Z,1.83
2022-12-01T00:50:47.662Z,1.79
2022-12-01T00:53:14.230Z,1.91
2022-12-01T00:55:40.889Z,1.89
2022-12-01T00:58:07.466Z,1.87
2022-12-01T01:00:34.284Z,1.67
2022-12-01T01:03:01.479Z,1.63
2022-12-01T01:05:28.059Z,1.59
2022-12-01T01:07:54.675Z,1.49
2022-12-01T01:10:21.319Z,1.45
2022-12-01T01:12:47.911Z,1.47
2022-12-01T01:15:14.568Z,1.38
2022-12-01T01:17:41.144Z,1.18
2022-12-01T01:20:08.389Z,1.15
2022-12-01T01:22:35.707Z,1.17
2022-12-01T01:25:02.289Z,1.13
2022-12-01T01:27:28.980Z,1.12
2022-12-01T01:29:55.557Z,1.20
2022-12-01T01:32:22.119Z,1.52
2022-12-01T01:34:48.710Z,1.05
2022-12-01T01:37:15.279Z,1.04
2022-12-01T01:39:41.947Z,1.14
2022-12-01T01:42:13.738Z,1.37
2022-12-01T01:44:52.704Z,0.66
2022-12-01T01:47:35.199Z,0.78
2022-12-01T01:50:07.267Z,1.02
2022-12-01T01:52:38.912Z,1.04
2022-12-01T01:55:06.074Z,1.21
2022-12-01T01:57:34.105Z,1.21
2022-12-01T02:00:09.087Z,1.23
2022-12-01T02:02:41.337Z,1.13
2022-12-01T02:05:11.561Z,1.21
2022-12-01T02:07:39.651Z,1.16
2022-12-01T02:10:08.433Z,1.28
2022-12-01T02:12:58.011Z,1.21
2022-12-01T02:15:33.530Z,1.03
2022-12-01T02:18:23.079Z,0.92
2022-12-01T02:20:49.638Z,0.79
2022-12-01T02:23:36.001Z,0.72
2022-12-01T02:26:27.436Z,0.87
2022-12-01T02:28:59.788Z,0.75
2022-12-01T02:32:01.889Z,0.76
2022-12-01T02:34:51.410Z,0.90
2022-12-01T02:37:50.453Z,0.78
2022-12-01T02:40:31.474Z,0.72
2022-12-01T02:43:02.067Z,0.75
2022-12-01T02:45:31.594Z,0.68
2022-12-01T02:48:02.232Z,0.37
2022-12-01T02:50:32.650Z,0.36
2022-12-01T02:53:01.421Z,0.44
2022-12-01T02:55:28.002Z,0.45
2022-12-01T02:57:54.570Z,0.53
2022-12-01T03:00:21.176Z,0.32
2022-12-01T03:02:56.796Z,0.26
2022-12-01T03:05:40.658Z,0.22
2022-12-01T03:08:16.265Z,0.19
2022-12-01T03:10:59.743Z,0.19
2022-12-01T03:13:41.677Z,0.21
2022-12-01T03:16:12.858Z,0.09
2022-12-01T03:18:53.770Z,0.20
2022-12-01T03:21:23.285Z,0.52
2022-12-01T03:23:55.523Z,0.30
2022-12-01T03:26:24.690Z,0.12
2022-12-01T03:28:55.565Z,0.14
2022-12-01T03:31:28.187Z,0.13
2022-12-01T03:34:04.011Z,0.18
2022-12-01T03:36:37.209Z,-0.01
2022-12-01T03:39:10.826Z,0.13
2022-12-01T03:41:43.487Z,0.15
2022-12-01T03:44:15.676Z,0.13
2022-12-01T03:46:55.101Z,0.11
2022-12-01T03:49:23.572Z,0.21
2022-12-01T03:51:59.068Z,0.12
2022-12-01T03:54:46.525Z,0.09
2022-12-01T03:57:26.065Z,0.11
2022-12-01T03:59:54.236Z,0.13
2022-12-01T04:02:21.339Z,0.35
2022-12-01T04:04:47.953Z,-0.02
2022-12-01T04:07:14.518Z,-0.14
2022-12-01T04:09:41.580Z,-0.15
2022-12-01T04:12:12.070Z,-0.19
2022-12-01T04:14:38.637Z,-0.06
2022-12-01T04:17:05.253Z,-0.05
2022-12-01T04:19:31.822Z,0.28
2022-12-01T04:21:58.407Z,-0.03
2022-12-01T04:24:25.076Z,0.32
2022-12-01T04:26:51.723Z,0.20
2022-12-01T04:29:18.385Z,0.03
2022-12-01T04:31:45.079Z,0.04
2022-12-01T04:34:11.726Z,-0.15
2022-12-01T04:36:38.397Z,-0.23
2022-12-01T04:39:05.056Z,-0.30
2022-12-01T04:41:31.633Z,-0.47
2022-12-01T04:43:58.226Z,-0.18
2022-12-01T04:46:25.655Z,0.20
2022-12-01T04:48:52.368Z,-0.06
2022-12-01T04:51:19.122Z,-0.02
2022-12-01T04:53:45.731Z,-0.21
2022-12-01T04:56:12.325Z,-0.22
2022-12-01T04:58:39.932Z,-0.43
2022-12-01T05:01:12.824Z,-0.60
2022-12-01T05:03:41.752Z,-0.57
2022-12-01T05:06:11.700Z,-0.44
2022-12-01T05:08:38.347Z,-0.55
2022-12-01T05:11:05.530Z,-0.77
2022-12-01T05:13:32.109Z,-0.63
2022-12-01T05:16:10.676Z,-0.53
2022-12-01T05:18:37.971Z,-0.36
2022-12-01T05:21:06.863Z,-0.52
2022-12-01T05:23:35.301Z,-0.62
2022-12-01T05:26:04.922Z,-0.63
2022-12-01T05:28:31.574Z,-0.61
2022-12-01T05:30:58.210Z,-0.56
2022-12-01T05:33:27.510Z,-0.49
2022-12-01T05:35:54.587Z,-0.49
2022-12-01T05:38:21.453Z,-0.53
2022-12-01T05:40:55.534Z,-0.49
2022-12-01T05:43:28.603Z,-0.50
2022-12-01T05:45:56.553Z,-0.63
2022-12-01T05:48:23.295Z,-0.66
2022-12-01T05:50:49.886Z,-0.69
2022-12-01T05:53:17.248Z,-0.47
2022-12-01T05:55:43.999Z,-0.54
2022-12-01T05:58:10.982Z,-0.54
2022-12-01T06:00:45.028Z,-0.69
2022-12-01T06:03:12.876Z,-0.85
2022-12-01T06:05:39.648Z,-0.81
2022-12-01T06:08:06.256Z,-0.77
2022-12-01T06:10:32.835Z,-0.66
2022-12-01T06:12:59.416Z,-0.65
2022-12-01T06:15:26.149Z,-0.63
2022-12-01T06:17:52.745Z,-0.63
2022-12-01T06:20:19.411Z,-0.66
2022-12-01T06:22:46.065Z,-0.83
2022-12-01T06:25:12.633Z,-0.77
2022-12-01T06:27:39.209Z,-0.75
2022-12-01T06:30:06.723Z,-0.56
2022-12-01T06:32:33.363Z,-0.66
2022-12-01T06:34:59.934Z,-0.71
2022-12-01T06:37:27.995Z,-0.66
2022-12-01T06:39:54.795Z,-0.69
2022-12-01T06:42:21.507Z,-0.78
2022-12-01T06:44:48.156Z,-0.87
2022-12-01T06:47:14.796Z,-0.95
2022-12-01T06:49:41.682Z,-0.92
2022-12-01T06:52:08.259Z,-0.83
2022-12-01T06:54:34.861Z,-0.81
2022-12-01T06:57:01.528Z,-0.88
2022-12-01T06:59:28.108Z,-0.72
2022-12-01T07:01:54.987Z,-0.71
2022-12-01T07:04:21.628Z,-0.91
2022-12-01T07:06:48.214Z,-0.77
2022-12-01T07:09:14.791Z,-0.96
2022-12-01T07:11:41.405Z,-0.91
2022-12-01T07:14:23.204Z,-0.66
2022-12-01T07:16:49.816Z,-0.80
2022-12-01T07:19:16.490Z,-0.97
2022-12-01T07:21:43.269Z,-1.29
2022-12-01T07:24:10.289Z,-1.07
2022-12-01T07:26:36.886Z,-1.05
2022-12-01T07:29:03.773Z,-0.83
2022-12-01T07:31:30.415Z,-0.80
2022-12-01T07:33:57.513Z,-0.92
2022-12-01T07:36:24.113Z,-1.08
2022-12-01T07:38:50.682Z,-0.95
2022-12-01T07:41:19.024Z,-1.01
2022-12-01T07:43:46.410Z,-1.05
2022-12-01T07:46:22.337Z,-0.91
2022-12-01T07:48:50.130Z,-1.04
2022-12-01T07:51:17.272Z,-0.87
2022-12-01T07:53:45.366Z,-0.93
2022-12-01T07:56:12.146Z,-1.05
2022-12-01T07:58:39.508Z,-1.09
2022-12-01T08:01:13.192Z,-1.10
2022-12-01T08:03:41.140Z,-1.00
2022-12-01T08:06:08.893Z,-0.77
2022-12-01T08:08:37.630Z,-0.68
2022-12-01T08:11:11.722Z,-0.53
2022-12-01T08:13:39.050Z,-0.37
2022-12-01T08:16:07.967Z,-0.31
2022-12-01T08:18:35.551Z,-0.26
2022-12-01T08:21:03.085Z,-0.35
2022-12-01T08:23:29.764Z,-0.30
2022-12-01T08:26:00.687Z,-0.04
2022-12-01T08:28:27.288Z,-0.14
2022-12-01T08:30:53.916Z,-0.12
2022-12-01T08:33:20.695Z,0.08
2022-12-01T08:35:47.286Z,0.17
2022-12-01T08:38:14.023Z,0.55
2022-12-01T08:40:40.636Z,0.28
2022-12-01T08:43:07.222Z,0.13
2022-12-01T08:45:33.821Z,0.74
2022-12-01T08:48:00.463Z,0.56
2022-12-01T08:50:28.067Z,0.67
2022-12-01T08:52:54.808Z,0.74
2022-12-01T08:55:21.984Z,0.72
2022-12-01T08:57:48.564Z,0.81
2022-12-01T09:00:16.232Z,0.83
2022-12-01T09:02:42.965Z,1.22
2022-12-01T09:05:09.945Z,1.53
2022-12-01T09:07:36.675Z,1.54
2022-12-01T09:10:04.226Z,1.46
2022-12-01T09:12:31.042Z,1.46
2022-12-01T09:14:57.705Z,1.69
2022-12-01T09:17:24.275Z,1.66
2022-12-01T09:19:51.439Z,2.01
2022-12-01T09:22:18.244Z,2.11
2022-12-01T09:24:44.900Z,1.75
2022-12-01T09:27:11.490Z,2.32
2022-12-01T09:29:38.103Z,2.72
2022-12-01T09:32:04.799Z,3.00
2022-12-01T09:34:31.393Z,2.67
2022-12-01T09:36:58.743Z,2.53
2022-12-01T09:39:25.388Z,3.25
2022-12-01T09:42:13.768Z,2.66
2022-12-01T09:44:45.532Z,2.99
2022-12-01T09:47:17.901Z,3.02
2022-12-01T09:50:03.764Z,2.77
2022-12-01T09:52:56.494Z,2.88
2022-12-01T09:55:25.065Z,2.72
2022-12-01T09:57:54.625Z,2.79
2022-12-01T10:00:24.555Z,2.96
2022-12-01T10:03:14.264Z,3.28
2022-12-01T10:06:25.000Z,3.23
2022-12-01T10:08:47.828Z,3.18
2022-12-01T10:11:29.629Z,3.28
2022-12-01T10:13:56.346Z,3.35
2022-12-01T10:16:29.209Z,3.87
2022-12-01T10:19:09.793Z,3.99
2022-12-01T10:22:30.166Z,3.90
2022-12-01T10:25:20.856Z,3.97
2022-12-01T10:28:14.776Z,3.51
2022-12-01T10:30:52.067Z,3.54
2022-12-01T10:33:35.836Z,3.59
2022-12-01T10:36:02.615Z,3.39
2022-12-01T10:38:34.300Z,4.06
2022-12-01T10:41:02.824Z,3.96
2022-12-01T10:43:37.244Z,3.77
2022-12-01T10:46:18.414Z,3.91
2022-12-01T10:48:57.419Z,4.61
2022-12-01T10:51:25.625Z,4.67
2022-12-01T10:54:00.830Z,5.10
2022-12-01T10:56:27.996Z,4.94
2022-12-01T10:59:02.914Z,5.10
2022-12-01T11:01:32.491Z,5.28
2022-12-01T11:04:08.931Z,5.44
2022-12-01T11:06:36.172Z,5.58
2022-12-01T11:09:06.927Z,5.53
2022-12-01T11:11:40.750Z,5.76
2022-12-01T11:14:18.724Z,5.58
2022-12-01T11:16:47.754Z,5.88
2022-12-01T11:19:25.460Z,5.90
2022-12-01T11:21:59.330Z,5.71
2022-12-01T11:25:05.043Z,5.83
2022-12-01T11:27:50.268Z,5.97
2022-12-01T11:30:23.642Z,5.94
2022-12-01T11:32:56.655Z,5.89
2022-12-01T11:35:26.772Z,5.80
2022-12-01T11:38:28.259Z,6.26
2022-12-01T11:40:57.842Z,6.56
2022-12-01T11:43:27.199Z,6.54
2022-12-01T11:45:56.408Z,6.54
2022-12-01T11:48:26.699Z,6.44
2022-12-01T11:51:29.685Z,6.59
2022-12-01T11:54:13.635Z,6.59
2022-12-01T11:56:41.485Z,6.99
2022-12-01T11:59:18.271Z,6.83
2022-12-01T12:01:59.942Z,6.49
2022-12-01T12:04:39.600Z,6.67
2022-12-01T12:07:21.537Z,6.93
2022-12-01T12:10:25.737Z,6.86
2022-12-01T12:13:16.401Z,6.91
2022-12-01T12:15:56.832Z,6.86
2022-12-01T12:18:44.779Z,6.97
2022-12-01T12:21:17.431Z,7.03
2022-12-01T12:24:21.294Z,7.02
2022-12-01T12:27:06.265Z,6.66
2022-12-01T12:29:35.681Z,6.67
2022-12-01T12:32:02.404Z,6.85
2022-12-01T12:34:51.084Z,6.82
2022-12-01T12:37:17.584Z,6.85
2022-12-01T12:39:47.436Z,6.80
2022-12-01T12:42:52.665Z,6.88
2022-12-01T12:45:27.204Z,7.01
2022-12-01T12:49:03.510Z,6.95
2022-12-01T12:51:38.862Z,7.01
2022-12-01T12:54:31.858Z,6.86
2022-12-01T12:57:06.693Z,6.71
2022-12-01T13:00:15.807Z,6.96
2022-12-01T13:02:50.723Z,6.74
2022-12-01T13:05:25.933Z,6.82
2022-12-01T13:07:59.615Z,6.74
2022-12-01T13:10:47.831Z,6.69
2022-12-01T13:13:27.501Z,6.38
2022-12-01T13:15:56.878Z,6.46
2022-12-01T13:18:30.826Z,6.58
2022-12-01T13:20:58.338Z,6.89
2022-12-01T13:23:26.193Z,6.79
2022-12-01T13:25:56.130Z,7.01
2022-12-01T13:28:37.247Z,7.19
2022-12-01T13:31:07.351Z,6.88
2022-12-01T13:33:36.774Z,7.06
2022-12-01T13:39:17.406Z,6.58
2022-12-01T13:41:46.042Z,6.36
2022-12-01T13:44:40.413Z,6.79
2022-12-01T13:47:09.753Z,6.66
2022-12-01T13:49:41.078Z,6.50
2022-12-01T13:52:22.777Z,6.47
2022-12-01T13:55:07.963Z,6.08
2022-12-01T13:57:36.708Z,6.18
2022-12-01T14:00:29.347Z,6.00
2022-12-01T14:03:14.585Z,6.14
2022-12-01T14:05:53.395Z,5.73
2022-12-01T14:08:30.080Z,5.32
2022-12-01T14:10:59.951Z,5.76
2022-12-01T14:13:28.839Z,5.62
2022-12-01T14:16:02.161Z,5.64
2022-12-01T14:18:39.754Z,5.70
2022-12-01T14:21:08.972Z,5.69
2022-12-01T14:23:38.837Z,5.70
2022-12-01T14:26:20.976Z,5.76
2022-12-01T14:28:59.879Z,5.63
2022-12-01T14:31:32.397Z,5.26
2022-12-01T14:34:02.750Z,5.32
2022-12-01T14:36:35.870Z,5.15
2022-12-01T14:39:13.968Z,5.39
2022-12-01T14:41:43.403Z,5.20
2022-12-01T14:44:18.833Z,5.00
2022-12-01T14:46:56.548Z,4.92
2022-12-01T14:49:38.194Z,4.92
2022-12-01T14:52:12.237Z,4.81
2022-12-01T14:54:49.500Z,4.68
2022-12-01T14:57:21.859Z,4.56
2022-12-01T15:00:02.264Z,4.54
2022-12-01T15:02:29.085Z,4.54
2022-12-01T15:05:07.161Z,4.52
2022-12-01T15:07:42.123Z,4.44
2022-12-01T15:10:21.679Z,4.31
2022-12-01T15:12:49.250Z,4.26
2022-12-01T15:15:25.353Z,4.24
2022-12-01T15:17:55.376Z,4.12
2022-12-01T15:20:46.348Z,4.06
2022-12-01T15:23:16.498Z,4.08
2022-12-01T15:25:45.573Z,3.99
2022-12-01T15:28:19.079Z,3.96
2022-12-01T15:30:51.401Z,3.85
2022-12-01T15:33:26.952Z,3.95
2022-12-01T15:35:55.780Z,3.84
2022-12-01T15:38:27.161Z,3.86
2022-12-01T15:43:42.585Z,3.82
2022-12-01T15:46:17.508Z,3.90
2022-12-01T15:48:44.745Z,3.89
2022-12-01T15:51:17.456Z,3.71
2022-12-01T15:54:00.166Z,3.63
2022-12-01T15:56:33.633Z,3.62
2022-12-01T15:59:12.183Z,3.68
2022-12-01T16:01:41.167Z,3.69
2022-12-01T16:04:21.321Z,3.61
2022-12-01T16:06:58.144Z,3.53
2022-12-01T16:09:34.970Z,3.49
2022-12-01T16:12:16.446Z,3.42
2022-12-01T16:15:01.256Z,3.37
2022-12-01T16:17:46.679Z,3.34
2022-12-01T16:20:25.502Z,3.41
2022-12-01T16:22:56.038Z,3.35
2022-12-01T16:25:36.202Z,3.14
2022-12-01T16:28:04.600Z,3.19
2022-12-01T16:30:37.971Z,3.12
2022-12-01T16:33:18.916Z,3.18
2022-12-01T16:35:46.180Z,3.18
2022-12-01T16:38:18.504Z,3.26
2022-12-01T16:40:45.291Z,3.37
2022-12-01T16:43:17.119Z,3.09
2022-12-01T16:45:45.288Z,3.09
2022-12-01T16:48:12.436Z,3.08
2022-12-01T16:50:39.855Z,3.08
2022-12-01T16:53:06.446Z,3.11
2022-12-01T16:55:44.354Z,3.05
2022-12-01T16:58:10.936Z,2.94
2022-12-01T17:00:37.529Z,2.98
2022-12-01T17:03:04.719Z,3.00
2022-12-01T17:05:32.399Z,3.01
2022-12-01T17:07:59.177Z,3.06
2022-12-01T17:10:25.993Z,3.02
2022-12-01T17:12:52.580Z,3.00
2022-12-01T17:15:19.316Z,2.99
2022-12-01T17:17:45.944Z,2.87
2022-12-01T17:20:12.689Z,2.88
2022-12-01T17:22:39.390Z,2.82
2022-12-01T17:25:06.785Z,2.83
2022-12-01T17:27:33.358Z,2.75
2022-12-01T17:29:59.963Z,2.76
2022-12-01T17:32:27.665Z,2.77
2022-12-01T17:34:54.300Z,2.76
2022-12-01T17:37:21.501Z,2.75
2022-12-01T17:39:48.382Z,2.72
2022-12-01T17:42:14.997Z,2.75
2022-12-01T17:44:41.611Z,2.71
2022-12-01T17:47:09.537Z,2.76
2022-12-01T17:49:36.353Z,2.63
2022-12-01T17:52:04.829Z,2.60
2022-12-01T17:54:31.573Z,2.62
2022-12-01T17:56:58.481Z,2.57
2022-12-01T17:59:25.161Z,2.54
2022-12-01T18:01:51.808Z,2.54
2022-12-01T18:04:18.468Z,2.54
2022-12-01T18:06:47.997Z,2.45
2022-12-01T18:09:18.972Z,2.44
2022-12-01T18:11:45.563Z,2.34
2022-12-01T18:14:12.138Z,2.36
2022-12-01T18:16:38.816Z,2.39
2022-12-01T18:19:05.441Z,2.40
2022-12-01T18:21:32.012Z,2.26
2022-12-01T18:24:01.602Z,2.24
2022-12-01T18:26:29.851Z,2.25
2022-12-01T18:28:59.065Z,2.20
2022-12-01T18:31:26.596Z,2.11
2022-12-01T18:33:53.708Z,2.15
2022-12-01T18:36:23.010Z,2.16
2022-12-01T18:38:50.817Z,2.13
2022-12-01T18:41:18.414Z,2.16
2022-12-01T18:43:45.316Z,2.08
2022-12-01T18:46:14.182Z,2.04
2022-12-01T18:48:45.641Z,2.07
2022-12-01T18:51:12.834Z,2.09
2022-12-01T18:53:39.524Z,2.03
2022-12-01T18:56:11.129Z,2.03
2022-12-01T18:58:39.466Z,2.05
2022-12-01T19:01:27.104Z,2.02
2022-12-01T19:03:57.543Z,2.05
2022-12-01T19:06:25.423Z,2.04
2022-12-01T19:08:53.199Z,2.02
2022-12-01T19:11:20.296Z,1.95
2022-12-01T19:13:47.860Z,1.91
2022-12-01T19:16:17.365Z,1.85
2022-12-01T19:18:44.244Z,1.87
2022-12-01T19:21:13.459Z,1.77
2022-12-01T19:23:40.340Z,1.81
2022-12-01T19:26:10.774Z,1.71
2022-12-01T19:28:38.186Z,1.76
2022-12-01T19:31:09.807Z,1.80
2022-12-01T19:33:37.285Z,1.80
2022-12-01T19:36:14.167Z,1.67
2022-12-01T19:38:41.178Z,1.65
2022-12-01T19:41:08.922Z,1.61
2022-12-01T19:43:36.374Z,1.96
2022-12-01T19:46:15.977Z,1.94
2022-12-01T19:48:42.954Z,1.65
2022-12-01T19:51:36.679Z,1.60
2022-12-01T19:54:04.491Z,1.59
2022-12-01T19:56:31.725Z,1.66
2022-12-01T19:58:59.550Z,1.74
2022-12-01T20:01:27.363Z,1.77
2022-12-01T20:03:54.974Z,1.73
2022-12-01T20:06:24.858Z,1.68
2022-12-01T20:08:51.869Z,1.64
2022-12-01T20:11:18.752Z,1.63
2022-12-01T20:13:46.758Z,1.65
2022-12-01T20:16:19.636Z,1.55
2022-12-01T20:18:47.476Z,1.58
2022-12-01T20:21:20.433Z,1.53
2022-12-01T20:23:50.295Z,1.48
2022-12-01T20:26:18.722Z,1.53
2022-12-01T20:28:47.954Z,1.54
2022-12-01T20:31:26.692Z,1.49
2022-12-01T20:33:55.785Z,1.48
2022-12-01T20:36:22.461Z,1.37
2022-12-01T20:38:49.169Z,1.46
2022-12-01T20:41:17.359Z,1.36
2022-12-01T20:43:44.008Z,1.29
2022-12-01T20:46:12.640Z,1.22
2022-12-01T20:48:39.873Z,1.21
2022-12-01T20:51:07.750Z,1.08
2022-12-01T20:53:35.659Z,1.06
2022-12-01T20:56:07.389Z,1.07
2022-12-01T20:58:37.455Z,1.15
2022-12-01T21:01:13.852Z,1.06
2022-12-01T21:03:42.290Z,1.02
2022-12-01T21:06:10.594Z,1.06
2022-12-01T21:08:42.044Z,1.10
2022-12-01T21:11:19.221Z,1.05
2022-12-01T21:13:46.871Z,0.93
2022-12-01T21:16:16.468Z,0.94
2022-12-01T21:18:54.757Z,0.85
2022-12-01T21:21:21.262Z,1.01
2022-12-01T21:24:14.005Z,0.98
2022-12-01T21:26:49.515Z,0.94
2022-12-01T21:29:23.279Z,0.72
2022-12-01T21:31:52.913Z,0.90
2022-12-01T21:34:22.480Z,0.91
2022-12-01T21:36:51.108Z,0.82
2022-12-01T21:39:20.897Z,0.95
2022-12-01T21:41:53.069Z,0.94
2022-12-01T21:44:21.757Z,1.01
2022-12-01T21:46:54.905Z,0.86
2022-12-01T21:49:25.977Z,0.99
2022-12-01T21:51:53.741Z,0.91
2022-12-01T21:54:22.043Z,0.89
2022-12-01T21:56:49.583Z,0.96
2022-12-01T21:59:19.907Z,0.84
2022-12-01T22:01:54.074Z,0.95
2022-12-01T22:04:27.883Z,0.85
2022-12-01T22:06:56.464Z,0.88
2022-12-01T22:09:26.867Z,0.88
2022-12-01T22:11:59.990Z,0.81
2022-12-01T22:14:33.583Z,0.83
2022-12-01T22:17:14.377Z,0.82
2022-12-01T22:19:45.762Z,0.75
2022-12-01T22:22:12.329Z,0.80
2022-12-01T22:24:51.675Z,0.97
2022-12-01T22:27:26.511Z,1.15
2022-12-01T22:30:17.369Z,1.13
2022-12-01T22:32:56.894Z,1.26
2022-12-01T22:35:29.882Z,1.16
2022-12-01T22:38:05.657Z,1.03
2022-12-01T22:40:35.213Z,0.95
2022-12-01T22:43:22.056Z,1.00
2022-12-01T22:45:52.985Z,0.91
2022-12-01T22:48:33.621Z,0.97
2022-12-01T22:51:21.931Z,0.93
2022-12-01T22:53:49.589Z,1.11
2022-12-01T22:56:35.596Z,1.03
2022-12-01T22:59:30.897Z,1.05
2022-12-01T23:01:59.542Z,1.02
2022-12-01T23:04:38.557Z,1.21
2022-12-01T23:07:37.018Z,1.05
2022-12-01T23:10:18.914Z,0.92
2022-12-01T23:12:48.022Z,1.14
2022-12-01T23:15:28.890Z,0.93
2022-12-01T23:17:55.734Z,0.96
2022-12-01T23:20:33.327Z,0.99
2022-12-01T23:23:03.302Z,0.97
2022-12-01T23:25:31.062Z,1.07
2022-12-01T23:28:01.156Z,1.10
2022-12-01T23:30:27.774Z,1.31
2022-12-01T23:33:03.479Z,1.06
2022-12-01T23:35:32.604Z,1.17
2022-12-01T23:37:59.269Z,1.12
2022-12-01T23:40:35.772Z,1.13
2022-12-01T23:43:25.314Z,0.87
2022-12-01T23:46:02.789Z,0.91
2022-12-01T23:48:36.446Z,1.03
2022-12-01T23:51:03.553Z,1.01
2022-12-01T23:53:32.487Z,1.14
2022-12-01T23:56:09.850Z,0.95
2022-12-01T23:58:36.501Z,0.93
